createdAt,value
2022-10-04T00:02:23.821Z,4.40
2022-10-04T00:05:19.769Z,4.40
2022-10-04T00:07:55.439Z,4.40
2022-10-04T00:10:30.983Z,4.40
2022-10-04T00:13:00.732Z,4.40
2022-10-04T00:15:33.119Z,4.40
2022-10-04T00:18:22.034Z,4.30
2022-10-04T00:20:53.221Z,4.30
2022-10-04T00:23:25.668Z,4.30
2022-10-04T00:26:02.511Z,4.30
2022-10-04T00:28:36.879Z,4.40
2022-10-04T00:31:08.155Z,4.30
2022-10-04T00:33:44.601Z,4.30
2022-10-04T00:36:31.911Z,4.20
2022-10-04T00:39:04.926Z,4.20
2022-10-04T00:42:18.832Z,4.20
2022-10-04T00:45:00.762Z,4.20
2022-10-04T00:47:33.502Z,4.30
2022-10-04T00:50:15.476Z,4.30
2022-10-04T00:52:49.960Z,4.30
2022-10-04T00:55:26.867Z,4.30
2022-10-04T00:57:59.486Z,4.20
2022-10-04T01:00:26.993Z,4.10
2022-10-04T01:03:02.618Z,4.00
2022-10-04T01:05:37.521Z,4.00
2022-10-04T01:08:24.539Z,4.00
2022-10-04T01:11:05.192Z,4.00
2022-10-04T01:13:45.752Z,4.00
2022-10-04T01:16:19.825Z,3.80
2022-10-04T01:18:47.649Z,3.70
2022-10-04T01:21:20.537Z,3.70
2022-10-04T01:23:57.464Z,3.60
2022-10-04T01:26:30.156Z,3.70
2022-10-04T01:29:09.199Z,3.80
2022-10-04T01:31:57.337Z,3.90
2022-10-04T01:34:30.269Z,4.00
2022-10-04T01:36:59.687Z,3.90
2022-10-04T01:39:30.502Z,3.80
2022-10-04T01:42:20.417Z,3.80
2022-10-04T01:44:53.541Z,3.80
2022-10-04T01:47:33.588Z,3.90
2022-10-04T01:50:07.627Z,4.00
2022-10-04T01:52:39.978Z,4.00
2022-10-04T01:55:17.053Z,3.90
2022-10-04T01:57:52.693Z,3.80
2022-10-04T02:00:21.968Z,3.70
2022-10-04T02:03:05.793Z,3.60
2022-10-04T02:05:53.110Z,3.60
2022-10-04T02:08:31.570Z,3.60
2022-10-04T02:11:00.612Z,3.60
2022-10-04T02:13:40.136Z,3.60
2022-10-04T02:16:13.179Z,3.50
2022-10-04T02:18:43.570Z,3.50
2022-10-04T02:21:12.222Z,3.50
2022-10-04T02:23:41.041Z,3.50
2022-10-04T02:26:09.618Z,3.60
2022-10-04T02:28:39.688Z,3.70
2022-10-04T02:31:26.651Z,3.80
2022-10-04T02:33:57.818Z,3.80
2022-10-04T02:36:26.777Z,4.00
2022-10-04T02:39:06.685Z,4.00
2022-10-04T02:41:54.123Z,4.00
2022-10-04T02:44:34.466Z,4.10
2022-10-04T02:47:16.981Z,4.10
2022-10-04T02:49:57.760Z,4.10
2022-10-04T02:52:46.338Z,4.10
2022-10-04T02:55:12.918Z,4.10
2022-10-04T02:57:42.531Z,4.10
2022-10-04T03:00:20.398Z,4.20
2022-10-04T03:03:11.241Z,4.40
2022-10-04T03:05:40.150Z,4.60
2022-10-04T03:08:07.610Z,4.70
2022-10-04T03:10:35.511Z,4.90
2022-10-04T03:13:03.557Z,4.90
2022-10-04T03:15:31.112Z,4.90
2022-10-04T03:17:59.640Z,5.00
2022-10-04T03:20:28.741Z,4.90
2022-10-04T03:22:56.446Z,4.90
2022-10-04T03:25:27.044Z,4.80
2022-10-04T03:27:54.131Z,4.80
2022-10-04T03:30:24.087Z,4.70
2022-10-04T03:32:51.390Z,4.60
2022-10-04T03:35:37.627Z,4.50
2022-10-04T03:38:11.341Z,4.40
2022-10-04T03:40:42.055Z,4.30
2022-10-04T03:43:12.474Z,4.30
2022-10-04T03:45:44.355Z,4.30
2022-10-04T03:48:27.633Z,4.30
2022-10-04T03:50:54.893Z,4.40
2022-10-04T03:53:38.082Z,4.60
2022-10-04T03:56:20.255Z,4.70
2022-10-04T03:58:49.473Z,4.90
2022-10-04T04:01:44.062Z,5.10
2022-10-04T04:04:25.412Z,5.20
2022-10-04T04:07:17.109Z,5.30
2022-10-04T04:10:14.592Z,5.30
2022-10-04T04:12:56.408Z,5.30
2022-10-04T04:15:28.143Z,5.30
2022-10-04T04:17:55.757Z,5.30
2022-10-04T04:20:27.545Z,5.30
2022-10-04T04:22:59.896Z,5.20
2022-10-04T04:25:29.308Z,5.30
2022-10-04T04:28:12.854Z,5.30
2022-10-04T04:30:45.835Z,5.40
2022-10-04T04:33:30.454Z,5.40
2022-10-04T04:36:05.782Z,5.40
2022-10-04T04:38:33.219Z,5.50
2022-10-04T04:41:09.913Z,5.50
2022-10-04T04:43:43.985Z,5.50
2022-10-04T04:46:28.316Z,5.50
2022-10-04T04:49:04.925Z,5.50
2022-10-04T04:51:33.186Z,5.60
2022-10-04T04:54:03.480Z,5.50
2022-10-04T04:56:30.986Z,5.60
2022-10-04T04:59:02.238Z,5.60
2022-10-04T05:01:56.928Z,5.70
2022-10-04T05:04:24.312Z,5.70
2022-10-04T05:07:06.255Z,5.70
2022-10-04T05:09:35.853Z,5.80
2022-10-04T05:12:10.438Z,5.80
2022-10-04T05:14:45.853Z,5.80
2022-10-04T05:17:34.812Z,5.80
2022-10-04T05:20:03.027Z,5.80
2022-10-04T05:22:31.189Z,5.90
2022-10-04T05:25:05.214Z,5.90
2022-10-04T05:27:44.784Z,5.90
2022-10-04T05:30:21.652Z,5.90
2022-10-04T05:33:11.275Z,5.90
2022-10-04T05:36:38.383Z,5.90
2022-10-04T05:39:26.093Z,5.90
2022-10-04T05:42:25.830Z,6.00
2022-10-04T05:44:57.085Z,5.90
2022-10-04T05:47:30.169Z,6.00
2022-10-04T05:49:58.749Z,6.00
2022-10-04T05:52:37.639Z,6.00
2022-10-04T05:55:13.215Z,6.10
2022-10-04T05:57:50.701Z,6.10
2022-10-04T06:00:25.513Z,6.10
2022-10-04T06:03:16.007Z,6.10
2022-10-04T06:06:07.875Z,6.20
2022-10-04T06:09:12.706Z,6.20
2022-10-04T06:11:45.556Z,6.30
2022-10-04T06:14:50.279Z,6.40
2022-10-04T06:17:48.912Z,6.50
2022-10-04T06:20:42.275Z,6.50
2022-10-04T06:23:15.953Z,6.50
2022-10-04T06:26:13.809Z,6.60
2022-10-04T06:28:55.275Z,6.60
2022-10-04T06:31:55.370Z,6.60
2022-10-04T06:34:37.073Z,6.70
2022-10-04T06:37:37.578Z,6.70
2022-10-04T06:40:16.238Z,6.80
2022-10-04T06:43:14.195Z,6.80
2022-10-04T06:46:13.117Z,6.90
2022-10-04T06:49:17.310Z,7.00
2022-10-04T06:51:50.142Z,7.10
2022-10-04T06:54:35.473Z,7.20
2022-10-04T06:57:36.692Z,7.20
2022-10-04T07:00:21.479Z,7.10
2022-10-04T07:03:30.438Z,7.20
2022-10-04T07:06:07.124Z,7.20
2022-10-04T07:08:41.533Z,7.10
2022-10-04T07:11:24.591Z,7.10
2022-10-04T07:14:03.060Z,7.20
2022-10-04T07:16:41.120Z,7.40
2022-10-04T07:19:19.496Z,8.00
2022-10-04T07:21:54.004Z,8.50
2022-10-04T07:24:27.016Z,9.20
2022-10-04T07:26:55.832Z,9.80
2022-10-04T07:29:27.726Z,9.90
2022-10-04T07:32:21.185Z,9.90
2022-10-04T07:35:16.846Z,9.60
2022-10-04T07:37:58.795Z,9.50
2022-10-04T07:40:30.085Z,9.70
2022-10-04T07:43:13.304Z,9.90
2022-10-04T07:45:41.820Z,10.10
2022-10-04T07:48:15.838Z,10.30
2022-10-04T07:51:04.070Z,10.20
2022-10-04T07:53:43.805Z,10.40
2022-10-04T07:56:27.624Z,10.70
2022-10-04T07:59:13.652Z,11.10
2022-10-04T08:01:48.762Z,11.30
2022-10-04T08:04:44.354Z,11.60
2022-10-04T08:07:22.462Z,12.10
2022-10-04T08:09:49.292Z,12.50
2022-10-04T08:12:28.175Z,12.70
2022-10-04T08:15:04.539Z,13.10
2022-10-04T08:17:57.111Z,12.70
2022-10-04T08:20:58.435Z,12.70
2022-10-04T08:23:28.212Z,12.80
2022-10-04T08:26:29.667Z,13.00
2022-10-04T08:29:40.872Z,12.20
2022-10-04T08:32:35.728Z,12.20
2022-10-04T08:35:19.390Z,12.80
2022-10-04T08:37:54.821Z,13.20
2022-10-04T08:40:54.409Z,13.50
2022-10-04T08:43:59.426Z,13.30
2022-10-04T08:49:34.861Z,13.60
2022-10-04T08:52:41.093Z,14.30
2022-10-04T08:55:11.767Z,14.10
2022-10-04T08:57:47.077Z,14.10
2022-10-04T09:00:40.496Z,13.90
2022-10-04T09:03:31.515Z,14.10
2022-10-04T09:06:25.908Z,13.60
2022-10-04T09:09:30.603Z,13.50
2022-10-04T09:12:09.052Z,14.00
2022-10-04T09:14:42.369Z,14.30
2022-10-04T09:17:36.983Z,14.10
2022-10-04T09:20:41.701Z,14.30
2022-10-04T09:23:29.393Z,14.40
2022-10-04T09:26:07.506Z,14.10
2022-10-04T09:28:49.514Z,14.40
2022-10-04T09:31:53.724Z,14.50
2022-10-04T09:34:45.682Z,14.80
2022-10-04T09:37:43.571Z,15.30
2022-10-04T09:40:13.410Z,15.70
2022-10-04T09:42:39.998Z,16.00
2022-10-04T09:45:26.596Z,16.00
2022-10-04T09:48:25.159Z,16.50
2022-10-04T09:51:16.354Z,16.40
2022-10-04T09:53:52.974Z,16.80
2022-10-04T09:56:28.670Z,17.20
2022-10-04T09:59:22.134Z,17.60
2022-10-04T10:02:00.602Z,17.80
2022-10-04T10:04:50.201Z,18.20
2022-10-04T10:07:40.884Z,17.80
2022-10-04T10:10:54.061Z,17.90
2022-10-04T10:13:56.995Z,17.90
2022-10-04T10:16:42.664Z,18.60
2022-10-04T10:19:36.520Z,18.10
2022-10-04T10:22:56.812Z,18.20
2022-10-04T10:26:01.473Z,17.70
2022-10-04T10:29:04.048Z,18.00
2022-10-04T10:31:51.229Z,18.50
2022-10-04T10:34:56.603Z,18.30
2022-10-04T10:37:35.753Z,17.70
2022-10-04T10:40:30.779Z,17.50
2022-10-04T10:43:01.078Z,17.50
2022-10-04T10:46:04.617Z,17.10
2022-10-04T10:48:49.793Z,17.30
2022-10-04T10:51:40.452Z,17.30
2022-10-04T10:54:38.353Z,17.80
2022-10-04T10:57:23.750Z,18.00
2022-10-04T11:00:12.650Z,18.10
2022-10-04T11:02:52.325Z,17.90
2022-10-04T11:05:58.158Z,18.20
2022-10-04T11:09:02.217Z,17.90
2022-10-04T11:11:43.928Z,18.10
2022-10-04T11:14:19.897Z,19.00
2022-10-04T11:17:18.669Z,19.80
2022-10-04T11:20:28.738Z,19.50
2022-10-04T11:23:26.191Z,19.50
2022-10-04T11:25:56.386Z,20.10
2022-10-04T11:28:28.569Z,20.40
2022-10-04T11:31:10.138Z,20.60
2022-10-04T11:34:26.559Z,20.60
2022-10-04T11:37:22.845Z,20.10
2022-10-04T11:40:18.990Z,20.40
2022-10-04T11:43:04.589Z,19.60
2022-10-04T11:46:10.672Z,19.20
2022-10-04T11:48:55.835Z,19.10
2022-10-04T11:52:02.587Z,19.50
2022-10-04T11:54:52.756Z,19.90
2022-10-04T11:57:39.948Z,20.40
2022-10-04T12:00:16.977Z,19.90
2022-10-04T12:03:16.001Z,19.70
2022-10-04T12:05:59.932Z,19.50
2022-10-04T12:08:44.353Z,19.40
2022-10-04T12:11:52.741Z,19.60
2022-10-04T12:14:43.454Z,19.90
2022-10-04T12:17:32.063Z,19.40
2022-10-04T12:20:41.406Z,19.60
2022-10-04T12:23:13.924Z,19.00
2022-10-04T12:25:59.243Z,18.80
2022-10-04T12:29:06.486Z,19.10
2022-10-04T12:31:40.998Z,19.60
2022-10-04T12:34:27.852Z,20.30
2022-10-04T12:37:13.561Z,20.50
2022-10-04T12:39:45.560Z,20.10
2022-10-04T12:42:45.664Z,20.00
2022-10-04T12:45:27.241Z,20.00
2022-10-04T12:47:53.878Z,19.90
2022-10-04T12:50:41.906Z,19.60
2022-10-04T12:53:34.402Z,19.90
2022-10-04T12:56:19.056Z,20.00
2022-10-04T12:58:59.747Z,20.60
2022-10-04T13:01:45.833Z,20.70
2022-10-04T13:04:12.530Z,21.20
2022-10-04T13:07:10.848Z,21.10
2022-10-04T13:10:26.824Z,21.20
2022-10-04T13:13:11.833Z,21.20
2022-10-04T13:19:20.867Z,21.60
2022-10-04T13:21:53.095Z,21.70
2022-10-04T13:24:57.870Z,21.80
2022-10-04T13:27:47.918Z,21.40
2022-10-04T13:30:27.667Z,21.10
2022-10-04T13:33:26.234Z,21.10
2022-10-04T13:36:03.963Z,21.60
2022-10-04T13:38:55.180Z,21.80
2022-10-04T13:41:41.410Z,22.10
2022-10-04T13:44:55.494Z,22.50
2022-10-04T13:47:53.410Z,22.10
2022-10-04T13:50:43.944Z,21.90
2022-10-04T13:54:12.585Z,22.00
2022-10-04T13:57:07.029Z,22.00
2022-10-04T13:59:53.957Z,22.20
2022-10-04T14:02:41.320Z,22.40
2022-10-04T14:05:37.760Z,22.40
2022-10-04T14:08:21.422Z,22.30
2022-10-04T14:11:16.705Z,22.10
2022-10-04T14:14:28.010Z,22.40
2022-10-04T14:17:16.182Z,22.90
2022-10-04T14:20:03.066Z,23.40
2022-10-04T14:23:19.321Z,23.40
2022-10-04T14:25:52.869Z,23.00
2022-10-04T14:28:26.223Z,23.10
2022-10-04T14:31:11.616Z,23.70
2022-10-04T14:33:55.955Z,24.00
2022-10-04T14:37:00.920Z,24.40
2022-10-04T14:39:36.350Z,24.30
2022-10-04T14:42:22.812Z,24.60
2022-10-04T14:45:01.412Z,25.20
2022-10-04T14:48:06.154Z,25.70
2022-10-04T14:50:57.688Z,25.60
2022-10-04T14:54:00.354Z,24.90
2022-10-04T14:56:39.758Z,24.30
2022-10-04T14:59:22.368Z,24.20
2022-10-04T15:02:05.404Z,23.90
2022-10-04T15:05:16.590Z,23.60
2022-10-04T15:07:54.582Z,23.70
2022-10-04T15:10:38.255Z,23.80
2022-10-04T15:13:26.532Z,23.80
2022-10-04T15:16:30.818Z,23.70
2022-10-04T15:19:05.798Z,24.00
2022-10-04T15:21:41.312Z,23.90
2022-10-04T15:24:29.426Z,23.80
2022-10-04T15:27:20.911Z,24.20
2022-10-04T15:30:21.885Z,24.60
2022-10-04T15:32:55.056Z,24.60
2022-10-04T15:35:40.633Z,24.90
2022-10-04T15:38:33.763Z,24.60
2022-10-04T15:41:34.666Z,24.80
2022-10-04T15:44:15.027Z,24.60
2022-10-04T15:46:56.109Z,23.80
2022-10-04T15:49:31.826Z,22.30
2022-10-04T15:52:45.601Z,21.10
2022-10-04T15:55:31.333Z,19.90
2022-10-04T15:58:19.828Z,19.10
2022-10-04T16:00:52.462Z,18.40
2022-10-04T16:03:27.105Z,18.00
2022-10-04T16:06:11.892Z,17.60
2022-10-04T16:08:52.116Z,17.20
2022-10-04T16:11:24.703Z,16.90
2022-10-04T16:13:51.685Z,16.60
2022-10-04T16:16:19.363Z,16.40
2022-10-04T16:18:55.290Z,16.20
2022-10-04T16:21:54.218Z,16.00
2022-10-04T16:24:20.950Z,15.90
2022-10-04T16:26:48.192Z,15.70
2022-10-04T16:29:24.136Z,15.60
2022-10-04T16:32:15.411Z,15.40
2022-10-04T16:34:57.274Z,15.10
2022-10-04T16:37:23.953Z,14.90
2022-10-04T16:39:59.460Z,14.70
2022-10-04T16:42:49.710Z,14.50
2022-10-04T16:45:37.894Z,14.30
2022-10-04T16:48:29.260Z,14.10
2022-10-04T16:51:13.282Z,13.90
2022-10-04T16:53:39.892Z,13.80
2022-10-04T16:56:19.882Z,13.60
2022-10-04T16:59:10.734Z,13.30
2022-10-04T17:01:43.494Z,13.00
2022-10-04T17:04:28.728Z,12.90
2022-10-04T17:07:18.051Z,12.70
2022-10-04T17:10:06.341Z,12.60
2022-10-04T17:12:46.850Z,12.40
2022-10-04T17:15:59.094Z,12.20
2022-10-04T17:18:47.446Z,12.10
2022-10-04T17:21:44.419Z,11.80
2022-10-04T17:24:32.653Z,11.70
2022-10-04T17:27:18.015Z,11.50
2022-10-04T17:30:18.412Z,11.50
2022-10-04T17:33:07.530Z,11.50
2022-10-04T17:35:57.700Z,11.50
2022-10-04T17:38:49.127Z,11.50
2022-10-04T17:41:18.853Z,11.50
2022-10-04T17:44:11.044Z,11.40
2022-10-04T17:46:50.670Z,11.20
2022-10-04T17:50:00.796Z,11.20
2022-10-04T17:52:52.903Z,11.10
2022-10-04T17:55:28.760Z,11.00
2022-10-04T17:58:38.920Z,10.90
2022-10-04T18:01:18.731Z,10.90
2022-10-04T18:03:59.085Z,10.70
2022-10-04T18:06:48.129Z,10.70
2022-10-04T18:09:29.882Z,10.50
2022-10-04T18:12:04.387Z,10.40
2022-10-04T18:14:36.892Z,10.30
2022-10-04T18:17:17.204Z,10.20
2022-10-04T18:20:01.571Z,10.10
2022-10-04T18:22:41.055Z,10.10
2022-10-04T18:25:17.849Z,10.10
2022-10-04T18:28:09.633Z,10.10
2022-10-04T18:30:48.946Z,10.00
2022-10-04T18:33:17.354Z,10.00
2022-10-04T18:35:52.971Z,10.00
2022-10-04T18:38:28.823Z,10.00
2022-10-04T18:41:17.470Z,10.00
2022-10-04T18:44:17.281Z,10.10
2022-10-04T18:46:48.242Z,10.10
2022-10-04T18:49:29.104Z,10.10
2022-10-04T18:52:00.000Z,10.10
2022-10-04T18:55:15.260Z,10.00
2022-10-04T18:58:08.870Z,10.00
2022-10-04T19:01:21.791Z,9.90
2022-10-04T19:03:59.894Z,9.80
2022-10-04T19:06:30.466Z,9.60
2022-10-04T19:09:04.268Z,9.50
2022-10-04T19:11:40.523Z,9.30
2022-10-04T19:14:24.085Z,9.30
2022-10-04T19:17:12.929Z,9.30
2022-10-04T19:19:54.207Z,9.30
2022-10-04T19:22:30.667Z,9.40
2022-10-04T19:25:07.643Z,9.30
2022-10-04T19:27:49.969Z,9.20
2022-10-04T19:30:25.761Z,9.10
2022-10-04T19:32:57.085Z,9.10
2022-10-04T19:35:46.088Z,9.00
2022-10-04T19:38:22.373Z,9.00
2022-10-04T19:41:09.682Z,9.00
2022-10-04T19:43:52.191Z,8.90
2022-10-04T19:46:35.125Z,9.00
2022-10-04T19:49:02.906Z,9.00
2022-10-04T19:51:37.108Z,9.00
2022-10-04T19:54:15.423Z,8.90
2022-10-04T19:56:49.310Z,8.80
2022-10-04T19:59:21.949Z,8.70
2022-10-04T20:01:53.469Z,8.70
2022-10-04T20:04:35.091Z,8.60
2022-10-04T20:07:14.577Z,8.60
2022-10-04T20:09:43.217Z,8.70
2022-10-04T20:12:38.617Z,8.70
2022-10-04T20:15:17.176Z,8.60
2022-10-04T20:17:48.860Z,8.60
2022-10-04T20:20:38.785Z,8.60
2022-10-04T20:23:07.637Z,8.60
2022-10-04T20:25:54.541Z,8.60
2022-10-04T20:28:27.616Z,8.60
2022-10-04T20:31:00.862Z,8.60
2022-10-04T20:33:33.696Z,8.60
2022-10-04T20:36:06.995Z,8.50
2022-10-04T20:38:54.291Z,8.30
2022-10-04T20:41:52.452Z,8.20
2022-10-04T20:45:04.072Z,8.30
2022-10-04T20:47:42.031Z,8.30
2022-10-04T20:50:28.596Z,8.20
2022-10-04T20:52:58.791Z,8.10
2022-10-04T20:55:39.443Z,8.00
2022-10-04T20:58:24.591Z,8.10
2022-10-04T21:01:18.632Z,8.20
2022-10-04T21:03:45.390Z,8.10
2022-10-04T21:06:12.778Z,8.00
2022-10-04T21:08:41.115Z,7.90
2022-10-04T21:11:09.550Z,7.70
2022-10-04T21:13:48.641Z,7.60
2022-10-04T21:16:34.115Z,7.50
2022-10-04T21:19:43.012Z,7.50
2022-10-04T21:22:15.787Z,7.50
2022-10-04T21:24:51.426Z,7.60
2022-10-04T21:27:37.790Z,7.60
2022-10-04T21:30:14.462Z,7.50
2022-10-04T21:32:41.388Z,7.40
2022-10-04T21:35:09.277Z,7.30
2022-10-04T21:37:36.292Z,7.20
2022-10-04T21:40:05.125Z,7.10
2022-10-04T21:42:34.502Z,7.00
2022-10-04T21:45:01.284Z,7.00
2022-10-04T21:47:28.102Z,7.00
2022-10-04T21:49:55.213Z,7.10
2022-10-04T21:52:22.496Z,7.20
2022-10-04T21:54:49.160Z,7.10
2022-10-04T21:57:15.818Z,7.10
2022-10-04T21:59:42.459Z,7.10
2022-10-04T22:02:09.279Z,7.10
2022-10-04T22:04:37.956Z,7.00
2022-10-04T22:07:04.693Z,7.00
2022-10-04T22:09:34.939Z,6.90
2022-10-04T22:12:01.674Z,6.90
2022-10-04T22:14:28.555Z,7.00
2022-10-04T22:16:55.206Z,7.10
2022-10-04T22:19:24.676Z,7.00
2022-10-04T22:21:51.412Z,6.90
2022-10-04T22:24:23.662Z,6.80
2022-10-04T22:26:50.733Z,6.90
2022-10-04T22:29:18.769Z,6.90
2022-10-04T22:31:52.274Z,6.90
2022-10-04T22:34:22.861Z,6.80
2022-10-04T22:36:52.048Z,6.80
2022-10-04T22:39:20.853Z,6.70
2022-10-04T22:41:52.234Z,6.70
2022-10-04T22:44:22.430Z,6.60
2022-10-04T22:46:52.681Z,6.50
2022-10-04T22:49:41.125Z,6.50
2022-10-04T22:52:20.076Z,6.30
2022-10-04T22:54:51.825Z,6.40
2022-10-04T22:57:19.798Z,6.30
2022-10-04T22:59:49.167Z,6.20
2022-10-04T23:02:18.202Z,6.30
2022-10-04T23:04:51.139Z,6.30
2022-10-04T23:07:18.940Z,6.30
2022-10-04T23:09:45.831Z,6.40
2022-10-04T23:12:12.456Z,6.40
2022-10-04T23:14:40.301Z,6.50
2022-10-04T23:17:23.115Z,6.50
2022-10-04T23:20:09.156Z,6.50
2022-10-04T23:22:39.123Z,6.40
2022-10-04T23:25:26.035Z,6.50
2022-10-04T23:27:53.454Z,6.50
2022-10-04T23:30:21.978Z,6.50
2022-10-04T23:32:51.012Z,6.50
2022-10-04T23:35:31.263Z,6.40
2022-10-04T23:38:07.112Z,6.30
2022-10-04T23:40:33.755Z,6.20
2022-10-04T23:43:03.898Z,6.10
2022-10-04T23:45:31.054Z,6.10
2022-10-04T23:48:01.304Z,6.00
2022-10-04T23:50:37.469Z,6.00
2022-10-04T23:53:10.164Z,6.00
2022-10-04T23:55:40.261Z,5.90
2022-10-04T23:58:29.069Z,5.90
